Time;durP1;ratioP1;P1;durP2;ratioP2;P2;SDS_P1;SDS_P2;PMS_P1;PMS_P2;Temp;Humidity;BMP_temperature;BMP_pressure;BME280_temperature;BME280_humidity;BME280_pressure;Samples;Min_cycle;Max_cycle;Signal;HPM_P1;HPM_P2
2021/03/31 00:00:22;;;;;;;;;;;;;;;16.97;48.71;102343.47;5009230;28;97167;-85
2021/03/31 00:02:49;;;;;;;;;;;;;;;16.95;48.86;102343.53;5008791;28;97797;-85
2021/03/31 00:05:15;;;;;;;;;;;;;;;16.98;48.92;102346.09;5009928;28;97853;-84
2021/03/31 00:07:41;;;;;;;;;;;;;;;17.31;47.84;102335.06;5013267;28;97067;-84
2021/03/31 00:10:12;;;;;;;;;;;;;;;16.77;49.17;102330.88;5012662;28;97586;-86
2021/03/31 00:12:38;;;;;;;;;;;;;;;17.23;48.23;102326.47;5015484;28;98623;-86
2021/03/31 00:15:04;;;;;;;;;;;;;;;17.20;47.75;102329.28;5008348;28;98015;-85
2021/03/31 00:17:30;;;;;;;;;;;;;;;17.21;47.92;102328.31;5005859;28;97575;-84
2021/03/31 00:19:57;;;;;;;;;;;;;;;17.07;48.39;102329.72;5006936;28;97303;-84
2021/03/31 00:22:23;;;;;;;;;;;;;;;17.27;47.66;102326.28;5005702;28;97937;-86
2021/03/31 00:24:48;;;;;;;;;;;;;;;17.15;48.04;102321.41;5005798;28;97805;-85
2021/03/31 00:27:14;;;;;;;;;;;;;;;17.35;47.67;102315.31;5003749;28;97587;-84
2021/03/31 00:29:40;;;;;;;;;;;;;;;16.92;48.53;102316.97;5004283;28;96924;-85
2021/03/31 00:32:06;;;;;;;;;;;;;;;16.93;48.36;102317.84;5004577;28;98311;-86
2021/03/31 00:34:32;;;;;;;;;;;;;;;16.88;48.54;102317.97;5005378;28;98335;-84
2021/03/31 00:36:59;;;;;;;;;;;;;;;17.00;48.48;102314.00;5007412;28;96769;-85
2021/03/31 00:39:25;;;;;;;;;;;;;;;17.14;47.90;102319.69;5009622;28;98346;-85
2021/03/31 00:41:54;;;;;;;;;;;;;;;17.06;48.42;102313.78;5010383;28;98966;-85
2021/03/31 00:44:20;;;;;;;;;;;;;;;16.72;49.67;102322.16;4998319;28;97698;-85
2021/03/31 00:46:46;;;;;;;;;;;;;;;16.42;50.86;102317.84;5002895;28;96784;-84
2021/03/31 00:49:11;;;;;;;;;;;;;;;16.63;50.08;102304.66;4999988;28;97361;-84
2021/03/31 00:51:37;;;;;;;;;;;;;;;16.35;50.15;102306.53;5000275;28;99295;-84
2021/03/31 00:54:04;;;;;;;;;;;;;;;17.03;48.36;102306.75;4998270;28;99038;-84
2021/03/31 00:56:30;;;;;;;;;;;;;;;16.80;48.95;102309.41;4999715;28;97143;-86
2021/03/31 00:58:56;;;;;;;;;;;;;;;16.66;49.21;102309.03;4996999;28;98380;-83
2021/03/31 01:01:22;;;;;;;;;;;;;;;16.55;49.30;102309.38;4998508;28;99134;-85
2021/03/31 01:03:48;;;;;;;;;;;;;;;16.77;48.92;102303.28;4999009;28;99425;-83
2021/03/31 01:06:14;;;;;;;;;;;;;;;16.73;49.17;102313.22;5003608;28;97488;-84
2021/03/31 01:08:40;;;;;;;;;;;;;;;16.66;48.99;102307.25;4998656;28;96905;-84
2021/03/31 01:11:06;;;;;;;;;;;;;;;16.39;49.74;102310.84;4996278;28;97883;-84
2021/03/31 01:13:45;;;;;;;;;;;;;;;16.32;50.08;102310.19;5001946;28;98793;-82
2021/03/31 01:16:16;;;;;;;;;;;;;;;16.43;49.51;102301.81;5003153;28;97043;-84
2021/03/31 01:18:45;;;;;;;;;;;;;;;16.02;50.73;102297.88;5003298;28;96770;-84
2021/03/31 01:21:24;;;;;;;;;;;;;;;16.01;50.74;102306.84;5003512;28;98990;-83
2021/03/31 01:24:20;;;;;;;;;;;;;;;15.83;50.99;102308.28;5008155;28;97791;-84
2021/03/31 01:26:48;;;;;;;;;;;;;;;16.28;49.98;102305.88;4970695;28;96515;-84
2021/03/31 01:29:22;;;;;;;;;;;;;;;16.01;50.49;102311.28;5004397;28;98002;-81
2021/03/31 01:32:01;;;;;;;;;;;;;;;16.10;50.26;102310.97;5010984;28;97976;-85
2021/03/31 01:34:35;;;;;;;;;;;;;;;16.17;50.05;102308.03;5007884;28;97236;-85
2021/03/31 01:37:02;;;;;;;;;;;;;;;16.11;50.12;102302.91;5019173;28;96695;-85
2021/03/31 01:39:28;;;;;;;;;;;;;;;16.30;49.63;102295.16;5018384;28;97128;-83
2021/03/31 01:41:57;;;;;;;;;;;;;;;16.47;49.17;102299.91;5015571;28;98879;-85
2021/03/31 01:44:24;;;;;;;;;;;;;;;16.48;48.95;102290.97;5004053;28;98020;-85
2021/03/31 01:46:51;;;;;;;;;;;;;;;16.27;49.64;102287.28;5004784;28;96816;-83
2021/03/31 01:49:18;;;;;;;;;;;;;;;16.01;50.31;102289.97;5004598;28;97045;-85
2021/03/31 01:51:47;;;;;;;;;;;;;;;15.81;51.09;102293.28;5005075;28;98042;-85
2021/03/31 01:54:14;;;;;;;;;;;;;;;15.76;51.29;102296.09;5000763;28;100405;-83
2021/03/31 01:56:41;;;;;;;;;;;;;;;15.58;51.45;102290.47;4999514;28;96756;-83
2021/03/31 01:59:07;;;;;;;;;;;;;;;15.84;50.76;102290.50;5007333;28;96868;-84
2021/03/31 02:01:33;;;;;;;;;;;;;;;16.13;50.00;102287.75;4996105;28;99001;-83
2021/03/31 02:03:59;;;;;;;;;;;;;;;16.10;50.05;102289.63;5004062;28;98833;-84
2021/03/31 02:06:27;;;;;;;;;;;;;;;16.22;49.85;102276.75;5004223;28;98339;-85
2021/03/31 02:08:55;;;;;;;;;;;;;;;15.88;50.06;102278.84;5006095;28;96782;-85
2021/03/31 02:11:21;;;;;;;;;;;;;;;15.85;50.66;102276.25;5008415;28;99010;-84
2021/03/31 02:13:47;;;;;;;;;;;;;;;15.40;52.16;102275.91;5008281;28;100508;-83
2021/03/31 02:16:15;;;;;;;;;;;;;;;15.36;52.19;102277.78;5006192;28;96657;-84
2021/03/31 02:18:41;;;;;;;;;;;;;;;15.70;51.64;102274.09;5013634;28;96626;-85
2021/03/31 02:21:07;;;;;;;;;;;;;;;15.94;50.56;102275.97;5012973;27;98871;-85
2021/03/31 02:23:35;;;;;;;;;;;;;;;16.20;49.70;102275.06;5012362;27;99313;-84
2021/03/31 02:26:03;;;;;;;;;;;;;;;15.82;50.50;102274.56;5015583;28;96532;-78
2021/03/31 02:28:30;;;;;;;;;;;;;;;15.70;50.96;102271.44;5018872;28;97512;-84
2021/03/31 02:30:55;;;;;;;;;;;;;;;15.54;51.39;102279.94;5019214;27;98241;-83
2021/03/31 02:33:22;;;;;;;;;;;;;;;15.46;51.85;102281.06;5019904;28;98909;-83
2021/03/31 02:35:48;;;;;;;;;;;;;;;15.32;52.27;102276.16;5019716;27;95946;-83
2021/03/31 02:38:16;;;;;;;;;;;;;;;15.48;51.76;102268.56;5014521;28;96702;-84
2021/03/31 02:40:44;;;;;;;;;;;;;;;15.05;52.77;102275.19;5008430;28;99297;-85
2021/03/31 02:43:17;;;;;;;;;;;;;;;15.38;51.87;102273.31;5006167;28;97854;-84
2021/03/31 02:45:45;;;;;;;;;;;;;;;15.52;51.63;102271.09;5016849;28;96022;-85
2021/03/31 02:48:13;;;;;;;;;;;;;;;15.72;51.03;102274.91;5019656;28;96543;-84
2021/03/31 02:50:39;;;;;;;;;;;;;;;15.51;51.44;102272.00;5016112;28;97905;-85
2021/03/31 02:53:04;;;;;;;;;;;;;;;15.71;50.86;102274.03;5007084;28;96688;-82
2021/03/31 02:55:30;;;;;;;;;;;;;;;15.83;50.58;102270.09;5007705;28;96799;-84
2021/03/31 02:57:57;;;;;;;;;;;;;;;15.98;49.96;102258.94;5007596;28;96879;-84
2021/03/31 03:00:25;;;;;;;;;;;;;;;15.66;51.00;102259.13;5004365;28;97922;-84
2021/03/31 03:02:52;;;;;;;;;;;;;;;15.59;51.17;102258.47;5003465;28;101673;-84
2021/03/31 03:05:19;;;;;;;;;;;;;;;15.29;51.85;102254.97;5004070;28;96789;-85
2021/03/31 03:07:45;;;;;;;;;;;;;;;15.70;51.08;102263.44;5004043;28;96794;-83
2021/03/31 03:10:12;;;;;;;;;;;;;;;15.81;50.64;102258.63;5001934;28;98861;-86
2021/03/31 03:12:38;;;;;;;;;;;;;;;15.74;50.54;102260.63;5002716;28;98935;-86
2021/03/31 03:15:05;;;;;;;;;;;;;;;15.35;51.69;102262.75;4999924;28;96782;-84
2021/03/31 03:17:31;;;;;;;;;;;;;;;15.29;52.04;102254.97;5002119;28;96853;-85
2021/03/31 03:19:57;;;;;;;;;;;;;;;15.72;50.79;102258.94;5000443;28;97895;-85
2021/03/31 03:22:23;;;;;;;;;;;;;;;15.48;51.04;102245.47;5000801;28;102184;-85
2021/03/31 03:24:52;;;;;;;;;;;;;;;15.41;51.37;102256.38;5000598;28;97567;-85
2021/03/31 03:27:19;;;;;;;;;;;;;;;15.20;52.04;102252.56;5001197;28;96810;-85
2021/03/31 03:29:45;;;;;;;;;;;;;;;15.30;51.61;102254.00;4993834;28;98854;-85
2021/03/31 03:32:11;;;;;;;;;;;;;;;15.21;52.04;102249.00;5001950;28;98300;-86
2021/03/31 03:34:38;;;;;;;;;;;;;;;15.10;52.20;102246.66;5000824;28;96929;-87
2021/03/31 03:37:04;;;;;;;;;;;;;;;14.93;52.85;102248.06;5001551;28;96814;-87
2021/03/31 03:39:30;;;;;;;;;;;;;;;15.02;52.66;102239.81;5000854;28;98920;-87
2021/03/31 03:41:56;;;;;;;;;;;;;;;14.71;53.51;102239.84;4998844;28;97677;-85
2021/03/31 03:44:23;;;;;;;;;;;;;;;14.64;53.68;102240.94;4998982;28;97189;-85
2021/03/31 03:46:49;;;;;;;;;;;;;;;14.89;53.38;102244.66;5000711;28;96921;-85
2021/03/31 03:49:15;;;;;;;;;;;;;;;14.83;53.38;102242.19;5000683;28;96952;-85
2021/03/31 03:51:43;;;;;;;;;;;;;;;14.84;53.23;102233.25;5001169;28;99910;-85
2021/03/31 03:54:09;;;;;;;;;;;;;;;14.63;53.79;102239.22;4988357;28;96782;-85
2021/03/31 03:56:38;;;;;;;;;;;;;;;14.80;53.53;102241.38;4995490;28;96864;-84
2021/03/31 03:59:20;;;;;;;;;;;;;;;14.58;54.09;102238.44;5001767;28;97869;-86
2021/03/31 04:01:46;;;;;;;;;;;;;;;14.85;53.14;102236.78;5000424;28;98805;-86
2021/03/31 04:04:12;;;;;;;;;;;;;;;15.37;51.67;102231.59;4998380;28;96665;-87
2021/03/31 04:06:38;;;;;;;;;;;;;;;15.43;51.42;102231.41;5001423;28;96796;-86
2021/03/31 04:09:05;;;;;;;;;;;;;;;15.35;51.08;102229.94;5000886;28;98137;-87
2021/03/31 04:11:32;;;;;;;;;;;;;;;15.16;51.86;102234.97;5003440;28;97795;-86
2021/03/31 04:13:58;;;;;;;;;;;;;;;14.88;52.45;102228.72;5004459;28;96822;-86
2021/03/31 04:16:25;;;;;;;;;;;;;;;14.64;53.28;102225.84;5004916;28;96930;-86
2021/03/31 04:18:53;;;;;;;;;;;;;;;14.77;52.94;102219.25;5004693;28;99690;-86
2021/03/31 04:21:19;;;;;;;;;;;;;;;14.83;52.81;102217.34;5003762;28;97750;-86
2021/03/31 04:23:45;;;;;;;;;;;;;;;15.18;51.98;102216.25;5007327;28;96802;-86
2021/03/31 04:26:12;;;;;;;;;;;;;;;14.84;52.99;102219.06;5006577;28;96977;-86
2021/03/31 04:28:39;;;;;;;;;;;;;;;14.99;52.72;102224.81;5005804;28;100861;-85
2021/03/31 04:31:05;;;;;;;;;;;;;;;14.85;52.82;102224.34;5000142;28;98913;-86
2021/03/31 04:33:31;;;;;;;;;;;;;;;15.07;52.48;102219.25;5007812;28;96877;-86
2021/03/31 04:35:57;;;;;;;;;;;;;;;15.39;51.44;102215.56;5003011;28;96861;-86
2021/03/31 04:38:23;;;;;;;;;;;;;;;15.09;52.25;102223.63;5006158;28;100019;-85
2021/03/31 04:40:52;;;;;;;;;;;;;;;15.15;52.38;102218.13;5005430;28;99130;-87
2021/03/31 04:43:19;;;;;;;;;;;;;;;15.13;52.20;102203.97;5004303;28;96897;-86
2021/03/31 04:45:45;;;;;;;;;;;;;;;15.54;51.30;102204.47;5002587;28;96757;-86
2021/03/31 04:48:11;;;;;;;;;;;;;;;15.47;51.34;102203.75;5002086;28;99073;-86
2021/03/31 04:50:37;;;;;;;;;;;;;;;15.21;51.74;102205.53;5004211;28;99569;-87
2021/03/31 04:53:02;;;;;;;;;;;;;;;15.18;52.03;102201.16;5001776;28;96779;-86
2021/03/31 04:55:28;;;;;;;;;;;;;;;15.31;51.84;102202.50;5006636;28;96779;-86
2021/03/31 04:57:54;;;;;;;;;;;;;;;15.24;51.89;102200.94;5016033;28;100523;-84
2021/03/31 05:00:21;;;;;;;;;;;;;;;15.21;51.95;102200.19;5008412;28;98058;-85
2021/03/31 05:02:47;;;;;;;;;;;;;;;15.34;51.78;102194.44;5004923;28;96942;-85
2021/03/31 05:05:14;;;;;;;;;;;;;;;15.50;51.50;102195.66;5004012;28;96842;-85
2021/03/31 05:07:39;;;;;;;;;;;;;;;15.60;50.78;102193.59;5004663;28;97894;-86
2021/03/31 05:10:06;;;;;;;;;;;;;;;15.67;50.42;102183.59;5003891;28;98755;-86
2021/03/31 05:12:32;;;;;;;;;;;;;;;15.68;51.00;102182.69;4992024;28;98537;-85
2021/03/31 05:14:57;;;;;;;;;;;;;;;15.45;51.13;102192.28;4999466;28;96829;-84
2021/03/31 05:17:24;;;;;;;;;;;;;;;15.54;51.24;102184.03;4992215;28;98831;-84
2021/03/31 05:19:50;;;;;;;;;;;;;;;15.62;50.92;102185.56;5015482;28;98159;-85
2021/03/31 05:22:16;;;;;;;;;;;;;;;15.47;51.32;102187.78;5006470;28;98698;-85
2021/03/31 05:24:42;;;;;;;;;;;;;;;15.49;51.33;102191.25;5014936;28;96875;-84
2021/03/31 05:27:08;;;;;;;;;;;;;;;15.35;51.78;102188.19;5007613;28;101001;-85
2021/03/31 05:29:34;;;;;;;;;;;;;;;15.25;52.24;102181.41;5010205;28;101730;-85
2021/03/31 05:32:00;;;;;;;;;;;;;;;15.47;52.04;102187.78;4999949;28;97170;-86
2021/03/31 05:34:27;;;;;;;;;;;;;;;15.57;51.58;102182.16;4996181;28;96809;-84
2021/03/31 05:36:52;;;;;;;;;;;;;;;16.17;49.92;102184.50;4993122;28;98908;-84
2021/03/31 05:39:18;;;;;;;;;;;;;;;16.26;49.58;102184.19;4997215;28;98788;-84
2021/03/31 05:41:44;;;;;;;;;;;;;;;16.60;48.59;102190.03;4998351;28;97210;-85
2021/03/31 05:44:11;;;;;;;;;;;;;;;16.22;49.26;102183.41;4999964;28;97384;-84
2021/03/31 05:46:37;;;;;;;;;;;;;;;16.27;49.27;102186.78;5011719;28;98976;-86
2021/03/31 05:49:03;;;;;;;;;;;;;;;16.25;49.39;102183.31;5000931;28;101077;-86
2021/03/31 05:51:30;;;;;;;;;;;;;;;16.35;49.19;102182.03;4996751;28;97253;-85
2021/03/31 05:53:55;;;;;;;;;;;;;;;16.16;49.84;102182.75;5000211;28;97073;-85
2021/03/31 05:56:22;;;;;;;;;;;;;;;16.17;49.63;102182.69;4999744;28;99341;-85
2021/03/31 05:58:48;;;;;;;;;;;;;;;16.40;49.18;102178.34;4998274;28;98887;-85
2021/03/31 06:01:14;;;;;;;;;;;;;;;16.44;49.03;102188.81;5022431;28;96885;-84
2021/03/31 06:03:40;;;;;;;;;;;;;;;16.38;49.21;102186.38;5018475;28;96994;-84
2021/03/31 06:06:06;;;;;;;;;;;;;;;16.65;48.40;102184.53;5013307;28;98042;-84
2021/03/31 06:08:33;;;;;;;;;;;;;;;16.70;48.07;102179.88;5016023;28;97725;-84
2021/03/31 06:10:59;;;;;;;;;;;;;;;16.91;47.58;102180.84;5014125;28;96834;-85
2021/03/31 06:13:25;;;;;;;;;;;;;;;16.95;47.67;102182.44;5021253;28;96760;-85
2021/03/31 06:15:51;;;;;;;;;;;;;;;17.03;47.31;102170.53;5013951;28;98086;-85
2021/03/31 06:18:18;;;;;;;;;;;;;;;16.88;47.38;102175.59;5002476;28;97763;-84
2021/03/31 06:20:47;;;;;;;;;;;;;;;17.26;46.44;102174.97;4997332;28;96778;-85
2021/03/31 06:23:24;;;;;;;;;;;;;;;17.63;45.89;102169.00;4996023;28;96820;-85
2021/03/31 06:26:00;;;;;;;;;;;;;;;17.39;46.16;102186.03;4989437;28;99237;-85
2021/03/31 06:28:28;;;;;;;;;;;;;;;17.66;45.78;102165.31;5009947;28;96752;-84
2021/03/31 06:31:04;;;;;;;;;;;;;;;17.76;45.24;102164.88;5013023;28;96775;-85
2021/03/31 06:33:30;;;;;;;;;;;;;;;17.31;46.53;102177.44;5009563;28;96939;-84
2021/03/31 06:35:56;;;;;;;;;;;;;;;17.72;45.49;102159.72;5005910;28;98950;-84
2021/03/31 06:38:28;;;;;;;;;;;;;;;17.95;44.74;102161.38;5014437;28;96574;-85
2021/03/31 06:40:59;;;;;;;;;;;;;;;18.43;43.87;102161.00;5013231;28;98082;-84
2021/03/31 06:43:29;;;;;;;;;;;;;;;18.55;43.64;102160.44;5011664;28;96718;-83
2021/03/31 06:45:58;;;;;;;;;;;;;;;18.59;43.43;102156.69;5000489;28;100970;-83
2021/03/31 06:48:27;;;;;;;;;;;;;;;18.60;43.43;102151.28;5005922;28;98655;-84
2021/03/31 06:50:53;;;;;;;;;;;;;;;18.59;43.24;102154.88;4989618;28;96673;-84
2021/03/31 06:53:25;;;;;;;;;;;;;;;18.67;43.10;102144.69;5015990;28;96792;-87
2021/03/31 06:55:58;;;;;;;;;;;;;;;18.91;42.56;102155.16;5016309;28;97807;-87
2021/03/31 06:58:24;;;;;;;;;;;;;;;19.68;40.87;102158.53;5011818;28;97900;-87
2021/03/31 07:00:49;;;;;;;;;;;;;;;19.20;41.98;102159.13;5012050;28;97400;-85
2021/03/31 07:03:18;;;;;;;;;;;;;;;19.09;42.04;102157.84;5016653;28;97317;-85
2021/03/31 07:05:44;;;;;;;;;;;;;;;19.54;40.99;102148.50;5014901;28;97520;-88
2021/03/31 07:08:12;;;;;;;;;;;;;;;19.93;40.44;102155.44;5015272;28;97740;-87
2021/03/31 07:10:42;;;;;;;;;;;;;;;20.03;40.06;102157.53;5009740;28;97034;-86
2021/03/31 07:13:08;;;;;;;;;;;;;;;20.10;39.81;102158.06;5007534;28;97090;-85
2021/03/31 07:15:35;;;;;;;;;;;;;;;20.15;39.80;102150.69;5008399;28;98911;-87
2021/03/31 07:18:01;;;;;;;;;;;;;;;19.94;40.18;102162.53;5017949;28;98273;-88
2021/03/31 07:20:29;;;;;;;;;;;;;;;20.22;40.02;102150.25;5025325;28;96543;-87
2021/03/31 07:22:56;;;;;;;;;;;;;;;20.23;39.84;102151.97;5021594;28;96834;-88
2021/03/31 07:25:23;;;;;;;;;;;;;;;20.12;39.92;102146.31;5005311;28;98282;-87
2021/03/31 07:27:49;;;;;;;;;;;;;;;20.15;40.26;102151.50;5011802;28;98816;-87
2021/03/31 07:30:22;;;;;;;;;;;;;;;20.54;39.20;102147.69;5008509;28;96945;-86
2021/03/31 07:32:52;;;;;;;;;;;;;;;20.72;39.22;102145.78;5013496;28;96652;-87
2021/03/31 07:35:20;;;;;;;;;;;;;;;20.77;38.77;102149.94;5008775;28;97500;-88
2021/03/31 07:37:48;;;;;;;;;;;;;;;20.84;38.38;102150.47;5003674;28;98928;-86
2021/03/31 07:40:16;;;;;;;;;;;;;;;20.90;38.35;102151.00;5012410;28;96993;-87
2021/03/31 07:42:44;;;;;;;;;;;;;;;21.16;37.86;102151.34;5010285;28;96724;-87
2021/03/31 07:45:12;;;;;;;;;;;;;;;21.45;37.12;102148.72;5008577;28;98910;-86
2021/03/31 07:47:40;;;;;;;;;;;;;;;21.32;37.05;102149.53;5016420;28;97564;-88
2021/03/31 07:50:07;;;;;;;;;;;;;;;21.61;36.56;102137.03;5014659;28;97139;-87
2021/03/31 07:52:52;;;;;;;;;;;;;;;21.93;36.04;102145.84;5016353;28;96221;-86
2021/03/31 07:55:38;;;;;;;;;;;;;;;22.03;35.45;102142.53;5009265;28;100043;-85
2021/03/31 07:58:18;;;;;;;;;;;;;;;22.27;34.82;102135.63;5014438;27;97837;-92
2021/03/31 08:04:10;;;;;;;;;;;;;;;22.25;34.79;102136.72;5006103;27;96738;-85
2021/03/31 08:06:36;;;;;;;;;;;;;;;22.21;34.55;102136.00;5015387;28;100830;-86
2021/03/31 08:09:19;;;;;;;;;;;;;;;22.27;34.39;102140.16;5016276;27;99978;-87
2021/03/31 08:11:47;;;;;;;;;;;;;;;22.64;34.15;102141.41;5016009;28;96790;-88
2021/03/31 08:14:13;;;;;;;;;;;;;;;23.21;33.23;102138.56;5016302;28;96675;-87
2021/03/31 08:16:41;;;;;;;;;;;;;;;23.63;32.36;102132.16;5011347;28;96909;-85
2021/03/31 08:19:39;;;;;;;;;;;;;;;24.01;31.68;102138.47;5008559;28;98015;-86
2021/03/31 08:22:19;;;;;;;;;;;;;;;23.41;32.86;102132.72;5056140;22;97224;-86
2021/03/31 08:24:46;;;;;;;;;;;;;;;23.13;33.19;102132.81;5026705;28;97019;-87
2021/03/31 08:27:13;;;;;;;;;;;;;;;22.92;33.89;102132.41;5091569;22;97784;-86
2021/03/31 08:29:48;;;;;;;;;;;;;;;23.15;33.55;102130.91;5094241;27;98411;-87
2021/03/31 08:32:14;;;;;;;;;;;;;;;23.03;33.56;102132.59;5085008;27;97155;-87
2021/03/31 08:34:42;;;;;;;;;;;;;;;22.97;33.89;102135.69;5087396;27;96676;-86
2021/03/31 08:37:17;;;;;;;;;;;;;;;23.38;32.98;102128.38;5092945;27;97220;-85
2021/03/31 08:39:44;;;;;;;;;;;;;;;22.99;33.59;102128.34;5097221;27;96788;-88
2021/03/31 08:42:10;;;;;;;;;;;;;;;23.22;33.15;102124.13;5097206;27;96753;-87
2021/03/31 08:44:38;;;;;;;;;;;;;;;22.98;33.30;102127.47;5096751;27;96862;-86
2021/03/31 08:47:09;;;;;;;;;;;;;;;23.00;33.31;102121.97;5092347;27;99851;-87
2021/03/31 08:49:39;;;;;;;;;;;;;;;22.87;33.34;102132.72;5088183;27;98477;-88
2021/03/31 08:52:06;;;;;;;;;;;;;;;22.98;33.00;102121.22;5083723;27;97054;-88
2021/03/31 08:54:33;;;;;;;;;;;;;;;23.49;32.21;102118.75;5083308;27;99146;-86
2021/03/31 08:57:00;;;;;;;;;;;;;;;23.50;31.79;102120.47;5085626;27;99389;-86
2021/03/31 08:59:29;;;;;;;;;;;;;;;23.48;31.29;102120.56;5082220;27;98868;-86
2021/03/31 09:01:55;;;;;;;;;;;;;;;23.50;30.99;102120.47;5084392;27;97116;-89
2021/03/31 09:04:22;;;;;;;;;;;;;;;24.00;30.34;102114.28;5086151;27;96790;-88
2021/03/31 09:09:32;;;;;;;;;;;;;;;23.90;28.79;102107.75;5080610;27;98826;-87
2021/03/31 09:11:58;;;;;;;;;;;;;;;23.95;28.61;102109.19;5083932;27;97653;-86
2021/03/31 09:14:26;;;;;;;;;;;;;;;24.17;28.16;102105.81;5088462;27;96796;-87
2021/03/31 09:16:54;;;;;;;;;;;;;;;24.51;27.60;102109.72;5092265;27;100168;-88
2021/03/31 09:19:20;;;;;;;;;;;;;;;24.74;27.35;102108.03;5082572;27;99306;-81
2021/03/31 09:21:46;;;;;;;;;;;;;;;24.71;26.78;102100.13;5084119;27;97227;-83
2021/03/31 09:24:16;;;;;;;;;;;;;;;24.44;27.08;102103.00;5079891;27;97608;-82
2021/03/31 09:26:47;;;;;;;;;;;;;;;24.41;27.10;102098.72;5089548;27;99025;-84
2021/03/31 09:29:14;;;;;;;;;;;;;;;24.41;26.40;102096.03;5086838;27;99076;-84
2021/03/31 09:31:41;;;;;;;;;;;;;;;24.42;26.75;102096.84;5089077;27;97339;-83
2021/03/31 09:34:08;;;;;;;;;;;;;;;24.48;25.02;102097.28;5082119;27;97114;-82
2021/03/31 09:36:34;;;;;;;;;;;;;;;24.57;25.40;102093.03;5084500;27;99346;-83
2021/03/31 09:39:00;;;;;;;;;;;;;;;24.77;24.74;102087.03;5088060;27;99612;-86
2021/03/31 09:41:27;;;;;;;;;;;;;;;25.16;24.26;102083.22;5090585;27;97142;-84
2021/03/31 09:43:53;;;;;;;;;;;;;;;25.16;23.60;102075.09;5080006;27;97122;-86
2021/03/31 09:46:22;;;;;;;;;;;;;;;25.07;23.97;102072.25;5085317;27;98196;-84
2021/03/31 09:48:51;;;;;;;;;;;;;;;25.12;22.98;102078.16;5085359;27;98629;-85
2021/03/31 09:51:19;;;;;;;;;;;;;;;25.11;23.11;102069.19;5088601;27;96764;-86
2021/03/31 09:53:45;;;;;;;;;;;;;;;25.31;22.85;102070.38;5083030;27;97427;-83
2021/03/31 09:56:12;;;;;;;;;;;;;;;25.05;22.84;102066.94;5076504;27;99407;-83
2021/03/31 09:58:38;;;;;;;;;;;;;;;25.04;22.18;102059.81;5082533;27;101245;-84
2021/03/31 10:01:05;;;;;;;;;;;;;;;25.07;21.98;102058.72;5078926;27;98598;-83
2021/03/31 10:03:32;;;;;;;;;;;;;;;25.16;22.11;102058.88;5085324;27;96645;-85
2021/03/31 10:06:13;;;;;;;;;;;;;;;24.86;21.70;102056.63;5082324;27;97927;-84
2021/03/31 10:08:40;;;;;;;;;;;;;;;24.79;21.50;102052.66;5079269;27;97771;-84
2021/03/31 10:11:09;;;;;;;;;;;;;;;25.16;21.50;102048.06;5084048;27;96978;-83
2021/03/31 10:13:35;;;;;;;;;;;;;;;25.36;21.29;102049.22;5083182;27;96907;-83
2021/03/31 10:16:04;;;;;;;;;;;;;;;25.17;20.80;102043.50;5086019;27;98939;-83
2021/03/31 10:18:32;;;;;;;;;;;;;;;25.06;22.35;102033.53;5087582;27;98340;-85
2021/03/31 10:20:59;;;;;;;;;;;;;;;25.03;22.30;102028.34;5098071;27;96524;-85
2021/03/31 10:23:30;;;;;;;;;;;;;;;25.04;21.96;102026.50;5096648;27;96630;-84
2021/03/31 10:26:15;;;;;;;;;;;;;;;25.16;21.15;102028.25;5094575;27;100132;-83
2021/03/31 10:28:41;;;;;;;;;;;;;;;25.11;20.93;102025.03;5090373;27;100351;-83
2021/03/31 10:31:23;;;;;;;;;;;;;;;24.77;21.70;102015.91;5096796;27;96520;-84
2021/03/31 10:33:50;;;;;;;;;;;;;;;24.91;21.48;102026.56;5084905;27;96783;-87
2021/03/31 10:36:34;;;;;;;;;;;;;;;25.07;21.17;102013.63;5085972;27;97867;-84
2021/03/31 10:39:25;;;;;;;;;;;;;;;25.07;22.35;102010.91;5088196;27;101773;-83
2021/03/31 10:47:21;;;;;;;;;;;;;;;25.34;21.23;102006.06;5082825;27;97122;-82
2021/03/31 10:49:51;;;;;;;;;;;;;;;25.28;20.74;101994.84;5081855;27;97686;-82
2021/03/31 10:52:19;;;;;;;;;;;;;;;25.11;21.92;101990.75;5082292;27;96844;-82
2021/03/31 10:54:46;;;;;;;;;;;;;;;25.33;21.35;101987.25;5081165;27;97701;-83
2021/03/31 10:57:12;;;;;;;;;;;;;;;25.20;21.00;101986.50;5081517;27;99192;-84
2021/03/31 10:59:39;;;;;;;;;;;;;;;24.68;21.15;101987.69;5083591;27;97808;-83
2021/03/31 11:02:06;;;;;;;;;;;;;;;24.89;21.18;101975.31;5089655;27;96659;-87
2021/03/31 11:04:32;;;;;;;;;;;;;;;25.06;21.52;101978.56;5087184;27;96909;-84
2021/03/31 11:06:58;;;;;;;;;;;;;;;24.98;21.25;101966.50;5086030;27;97972;-84
2021/03/31 11:09:24;;;;;;;;;;;;;;;25.11;20.79;101970.97;5079321;27;101829;-83
2021/03/31 11:11:51;;;;;;;;;;;;;;;24.90;21.27;101959.94;5085418;27;97619;-84
2021/03/31 11:14:17;;;;;;;;;;;;;;;25.21;21.38;101963.84;5083237;27;96870;-86
2021/03/31 11:16:48;;;;;;;;;;;;;;;25.22;21.35;101962.88;5093402;27;98059;-85
2021/03/31 11:19:27;;;;;;;;;;;;;;;25.31;21.15;101954.03;5094728;27;97697;-87
2021/03/31 11:27:24;;;;;;;;;;;;;;;25.36;21.27;101938.31;5085196;27;97234;-85
2021/03/31 11:29:50;;;;;;;;;;;;;;;24.99;21.44;101946.59;5086609;27;98167;-85
2021/03/31 11:32:16;;;;;;;;;;;;;;;25.05;21.31;101937.16;5086399;27;98659;-82
2021/03/31 11:34:42;;;;;;;;;;;;;;;24.91;21.41;101935.50;5088443;27;96763;-83
2021/03/31 11:37:08;;;;;;;;;;;;;;;25.28;20.72;101925.38;5084008;27;96946;-85
2021/03/31 11:39:34;;;;;;;;;;;;;;;25.51;21.07;101923.56;5083616;27;99705;-84
2021/03/31 11:42:01;;;;;;;;;;;;;;;25.23;21.25;101924.88;5081047;27;96694;-83
2021/03/31 11:44:28;;;;;;;;;;;;;;;25.37;21.01;101918.38;5086405;27;97252;-84
2021/03/31 11:46:54;;;;;;;;;;;;;;;25.39;20.53;101911.88;5086478;27;98221;-83
2021/03/31 11:49:20;;;;;;;;;;;;;;;25.22;20.71;101914.19;5083546;27;99179;-85
2021/03/31 11:51:46;;;;;;;;;;;;;;;25.06;21.23;101911.84;5083600;27;97231;-84
2021/03/31 11:54:12;;;;;;;;;;;;;;;25.48;21.19;101895.88;5079455;27;98151;-84
2021/03/31 11:56:38;;;;;;;;;;;;;;;25.54;21.23;101898.09;5083802;27;99256;-83
2021/03/31 11:59:05;;;;;;;;;;;;;;;25.56;21.54;101899.69;5094227;27;99154;-84
2021/03/31 12:01:34;;;;;;;;;;;;;;;25.29;21.00;101893.78;5099637;27;96425;-83
2021/03/31 12:04:01;;;;;;;;;;;;;;;25.13;21.13;101898.69;5104346;27;96940;-78
2021/03/31 12:06:27;;;;;;;;;;;;;;;25.25;20.92;101890.47;5091001;27;97821;-83
2021/03/31 12:08:53;;;;;;;;;;;;;;;25.42;20.80;101881.00;5096233;27;98552;-82
2021/03/31 12:11:19;;;;;;;;;;;;;;;25.48;20.73;101875.09;5094519;27;97031;-82
2021/03/31 12:13:45;;;;;;;;;;;;;;;25.59;20.47;101872.44;5088075;27;96979;-82
2021/03/31 12:16:11;;;;;;;;;;;;;;;25.55;20.71;101868.19;5093094;27;98876;-82
2021/03/31 12:18:39;;;;;;;;;;;;;;;25.32;20.65;101867.34;5095534;27;98977;-81
2021/03/31 12:21:06;;;;;;;;;;;;;;;25.60;20.76;101862.47;5082302;27;96793;-82
2021/03/31 12:23:35;;;;;;;;;;;;;;;25.42;20.52;101859.34;5090085;27;96816;-82
2021/03/31 12:26:01;;;;;;;;;;;;;;;25.87;19.81;101849.34;5095555;27;98912;-83
2021/03/31 12:28:27;;;;;;;;;;;;;;;26.03;20.20;101843.53;5087330;27;97792;-82
2021/03/31 12:30:53;;;;;;;;;;;;;;;25.90;19.63;101853.66;5093760;27;96696;-83
2021/03/31 12:33:20;;;;;;;;;;;;;;;25.70;19.98;101845.34;5080171;27;97358;-83
2021/03/31 12:35:47;;;;;;;;;;;;;;;25.92;20.06;101838.16;5094573;27;97522;-82
2021/03/31 12:38:20;;;;;;;;;;;;;;;26.02;19.77;101841.81;5282549;22;99179;-83
2021/03/31 12:40:46;;;;;;;;;;;;;;;25.91;19.39;101834.59;5044665;28;96712;-82
2021/03/31 12:43:12;;;;;;;;;;;;;;;25.84;19.53;101832.53;5060030;27;96757;-82
2021/03/31 12:45:38;;;;;;;;;;;;;;;26.10;19.51;101832.06;5053624;28;99265;-83
2021/03/31 12:48:06;;;;;;;;;;;;;;;26.34;19.52;101826.47;5046615;27;96797;-82
2021/03/31 12:50:32;;;;;;;;;;;;;;;26.26;19.20;101828.94;5042927;27;96843;-82
2021/03/31 12:53:01;;;;;;;;;;;;;;;25.70;19.27;101820.13;5036691;27;96797;-82
2021/03/31 12:55:30;;;;;;;;;;;;;;;26.07;19.04;101823.31;5037607;27;99075;-84